• Join FlightAware (Why Join?)
  • Login
  • US Flag 
05:41AM EDT


 

Airport Tracker/Info


-or-


 

Live Flight TrackerFlight Track Log ✈ N589H ✈ 18-Mar-2014 ✈ KMIA - KILM

Flight Track Log - Related Links

Times and Time Zones

All times are in EDT time to prevent confusion due to time zone crossing. See the N589H flight status page for this flight to view local times or setup timezone preferences in your user account.

Time Position Orientation Groundspeed Altitude Reporting Facility
EDT Latitude Longitude Course Direction KTS MPH feet Rate Location/Type
01:48PM 25.8069 -80.3144 311° West 166 191 700  Level Miami Center
01:49PM 25.8436 -80.3611 311° West 193 222 2,900 1,980 Climbing Miami Center
01:50PM 25.8831 -80.3989 319° Northwest 189 217 5,000 2,100 Climbing Miami Center
01:51PM 25.9222 -80.4278 326° Northwest 189 217 7,000 2,220 Climbing Miami Center
01:51PM 25.9272 -80.4303 336° Northwest 191 220 7,300 1,560 Climbing Miami Center
01:52PM 25.9783 -80.4044 24° Northeast 231 266 8,700 1,560 Climbing Miami Center
01:52PM 25.9903 -80.3958 33° Northeast 251 289 8,900 960 Climbing Miami Center
01:53PM 26.0458 -80.3628 28° Northeast 279 321 9,700 900 Climbing Miami Center
01:54PM 26.1292 -80.3844 347° North 269 310 10,800 960 Climbing Miami Center
01:55PM 26.2017 -80.4172 338° Northwest 279 321 11,800 1,020 Climbing Miami Center
01:56PM 26.2717 -80.4500 337° Northwest 275 316 13,000 1,260 Climbing Miami Center
01:57PM 26.3400 -80.4822 337° Northwest 271 312 14,500 1,500 Climbing Miami Center
01:58PM 26.4064 -80.5128 338° Northwest 262 302 16,100 1,620 Climbing Miami Center
01:59PM 26.4864 -80.5511 337° Northwest 262 302 17,900 1,560 Climbing Miami Center
02:00PM 26.5522 -80.5825 337° Northwest 259 298 19,400 1,500 Climbing Miami Center
02:01PM 26.6206 -80.6128 338° Northwest 258 297 21,000 1,500 Climbing Miami Center
02:02PM 26.6922 -80.6372 343° North 258 297 22,500 1,320 Climbing Miami Center
02:03PM 26.7608 -80.6631 341° North 253 291 23,800 780 Climbing Miami Center
02:04PM 26.8383 -80.6917 342° North 275 316 24,200 420 Climbing Miami Center
02:05PM 26.9178 -80.7211 342° North 296 341 24,700 480 Climbing Miami Center
02:06PM 27.0003 -80.7514 342° North 308 354 25,200 480 Climbing Miami Center
02:07PM 27.0844 -80.7831 341° North 317 365 25,700 480 Climbing Miami Center
02:08PM 27.1694 -80.8144 342° North 318 366 26,200 480 Climbing Miami Center
02:09PM 27.2522 -80.8458 341° North 316 364 26,700 480 Climbing Miami Center
02:10PM 27.3511 -80.8825 342° North 316 364 27,300 540 Climbing Miami Center
02:11PM 27.4344 -80.9139 342° North 316 364 27,900 480 Climbing Miami Center
02:12PM 27.5133 -80.9489 339° North 310 357 28,400 480 Climbing Miami Center
02:14PM 27.5956 -80.9794 342° North 311 358 28,900 480 Climbing Miami Center
02:15PM 27.6953 -81.0028 348° North 309 356 29,500 480 Climbing Miami Center
02:16PM 27.7772 -81.0228 348° North 305 351 30,000 480 Climbing Miami Center
02:17PM 27.8586 -81.0428 348° North 302 348 30,500 480 Climbing Miami Center
02:18PM 27.9381 -81.0625 348° North 298 343 31,000 240 Climbing Miami Center
02:19PM 28.0178 -81.0828 347° North 296 341 31,000  Level Miami Center
02:20PM 28.1169 -81.1072 348° North 304 350 31,000  Level Miami Center
02:21PM 28.2036 -81.1292 347° North 303 349 31,000  Level Miami Center
02:22PM 28.2911 -81.1514 347° North 306 352 31,000  Level Miami Center
02:23PM 28.3781 -81.1722 348° North 307 353 31,000  Level Miami Center
02:24PM 28.4528 -81.1917 347° North 312 359 31,000  Level Miami Center
02:25PM 28.5561 -81.2178 347° North 314 361 31,000  Level Miami Center
02:26PM 28.6389 -81.2389 347° North 319 367 31,000  Level Miami Center
02:27PM 28.7114 -81.2569 348° North 332 382 31,000  Level Jacksonville Center
02:28PM 28.8014 -81.2814 347° North 339 390 31,000  Level Jacksonville Center
02:29PM 28.8892 -81.3036 348° North 334 384 31,000  Level Jacksonville Center
02:30PM 28.9814 -81.3261 348° North 334 384 31,000  Level Jacksonville Center
02:31PM 29.0736 -81.3506 347° North 334 384 31,000  Level Jacksonville Center
02:32PM 29.1656 -81.3731 348° North 334 384 31,000  Level Jacksonville Center
02:33PM 29.2556 -81.3956 348° North 334 384 31,000  Level Jacksonville Center
02:34PM 29.3478 -81.4178 348° North 334 384 31,000  Level Jacksonville Center
02:35PM 29.4417 -81.4258 356° North 334 384 31,000  Level Jacksonville Center
02:36PM 29.5358 -81.4342 356° North 334 384 31,000  Level Jacksonville Center
02:37PM 29.6319 -81.4328 North 334 384 31,000  Level Jacksonville Center
02:38PM 29.7422 -81.4119 North 348 400 31,000  Level Jacksonville Center
02:39PM 29.8403 -81.3983 North 353 406 31,000  Level Jacksonville Center
02:40PM 29.9381 -81.3825 North 353 406 31,000  Level Jacksonville Center
02:41PM 30.0339 -81.3667 North 353 406 31,000  Level Jacksonville Center
02:42PM 30.1342 -81.3531 North 353 406 31,000  Level Jacksonville Center
02:43PM 30.2300 -81.3394 North 353 406 31,000  Level Jacksonville Center
02:44PM 30.3258 -81.3258 North 353 406 31,000  Level Jacksonville Center
02:45PM 30.4236 -81.3097 North 353 406 31,000  Level Jacksonville Center
02:46PM 30.5175 -81.2939 North 348 400 31,000  Level Jacksonville Center
02:47PM 30.6064 -81.2247 34° Northeast 354 407 31,000  Level Jacksonville Center
02:48PM 30.6908 -81.1461 39° Northeast 369 425 31,000  Level Jacksonville Center
02:49PM 30.7797 -81.0694 37° Northeast 379 436 31,000  Level Jacksonville Center
02:50PM 30.8642 -80.9928 38° Northeast 384 442 31,000  Level Jacksonville Center
02:51PM 30.9486 -80.9183 37° Northeast 384 442 31,000  Level Jacksonville Center
02:52PM 31.0392 -80.8439 35° Northeast 384 442 31,000  Level Jacksonville Center
02:53PM 31.1258 -80.7692 36° Northeast 384 442 31,000  Level Jacksonville Center
02:54PM 31.2078 -80.6894 40° Northeast 379 436 31,000  Level Jacksonville Center
02:55PM 31.2964 -80.6144 36° Northeast 385 443 31,000  Level Jacksonville Center
02:56PM 31.3847 -80.5392 36° Northeast 385 443 31,000  Level Jacksonville Center
02:57PM 31.4708 -80.4617 38° Northeast 385 443 31,000  Level Jacksonville Center
02:58PM 31.5592 -80.3861 36° Northeast 385 443 31,000  Level Jacksonville Center
02:59PM 31.6453 -80.3083 38° Northeast 390 449 31,000  Level Jacksonville Center
03:00PM 31.7317 -80.2350 36° Northeast 390 449 31,000  Level Jacksonville Center
03:01PM 31.8175 -80.1592 37° Northeast 390 449 31,000  Level Jacksonville Center
03:02PM 31.9056 -80.0783 38° Northeast 385 443 31,000  Level Jacksonville Center
03:03PM 31.9917 -80.0022 37° Northeast 385 443 31,000  Level Jacksonville Center
03:04PM 32.0775 -79.9283 36° Northeast 385 443 31,000  Level Jacksonville Center
03:05PM 32.1614 -79.8494 39° Northeast 385 443 31,000  Level Jacksonville Center
03:06PM 32.2492 -79.7731 36° Northeast 385 443 31,000  Level Jacksonville Center
03:07PM 32.3267 -79.7014 38° Northeast 390 449 31,000  Level Jacksonville Center
03:08PM 32.4125 -79.6247 37° Northeast 384 442 31,000  Level Jacksonville Center
03:09PM 32.4961 -79.5478 38° Northeast 384 442 31,000  Level Jacksonville Center
03:10PM 32.5817 -79.4706 37° Northeast 384 442 31,000  Level Jacksonville Center
03:11PM 32.6672 -79.3933 37° Northeast 384 442 31,000 -120 Level Jacksonville Center
03:12PM 32.7528 -79.3161 37° Northeast 384 442 30,800 -660 Descending Jacksonville Center
03:13PM 32.8361 -79.2386 38° Northeast 384 442 29,800 -1,020 Descending Jacksonville Center
03:14PM 32.9236 -79.1608 37° Northeast 384 442 28,800 -1,200 Descending Jacksonville Center
03:15PM 33.0067 -79.0831 38° Northeast 379 436 27,500 -1,500 Descending Jacksonville Center
03:16PM 33.0900 -79.0075 37° Northeast 379 436 25,800 -1,680 Descending Jacksonville Center
03:17PM 33.1733 -78.9319 37° Northeast 374 430 24,200 -1,620 Descending Jacksonville Center
03:18PM 33.2525 -78.8614 37° Northeast 369 425 22,600 -1,560 Descending Jacksonville Center
03:19PM 33.3272 -78.7858 40° Northeast 363 418 21,100 -1,620 Descending Jacksonville Center
03:20PM 33.4022 -78.7153 38° Northeast 353 406 19,400 -1,680 Descending Jacksonville Center
03:21PM 33.4792 -78.6469 37° Northeast 348 400 17,800 -1,560 Descending Jacksonville Center
03:22PM 33.5500 -78.5836 37° Northeast 332 382 16,300 -1,560 Descending Jacksonville Center
03:23PM 33.6208 -78.5231 35° Northeast 327 376 14,700 -1,680 Descending Jacksonville Center
03:24PM 33.6858 -78.4672 36° Northeast 302 348 13,000 -1,680 Descending Jacksonville Center
03:25PM 33.7506 -78.4117 36° Northeast 289 333 11,400 -1,620 Descending Jacksonville Center
03:27PM 33.8573 -78.2760 40° Northeast  Level FlightAware Approximate
03:34PM 34.2667 -77.9000 32° Northeast  Level FlightAware Approximate
03:35PM 34.2711 -77.9029 32° Northeast  Level Estimated
03:36PM 34.2667 -77.9000 32° Northeast  Level FlightAware Approximate
03:37PM 34.2711 -77.9029 32° Northeast  Level Estimated